Time;durP1;ratioP1;P1;durP2;ratioP2;P2;SDS_P1;SDS_P2;PMS_P1;PMS_P2;Temp;Humidity;BMP_temperature;BMP_pressure;BME280_temperature;BME280_humidity;BME280_pressure;Samples;Min_cycle;Max_cycle;Signal;HPM_P1;HPM_P2
2022/01/26 00:05:52;;;;;;;;;75.75;59.50;;;;;2.24;70.03;100766.56;4975681;28;45436;-77
2022/01/26 00:08:23;;;;;;;;;74.25;59.75;;;;;2.23;70.13;100772.63;4974732;28;45517;-76
2022/01/26 00:10:49;;;;;;;;;65.50;53.75;;;;;2.22;70.17;100768.25;4990460;28;45682;-77
2022/01/26 00:13:14;;;;;;;;;73.75;57.50;;;;;2.21;70.48;100769.97;4989722;28;46921;-76
2022/01/26 00:15:40;;;;;;;;;72.50;57.00;;;;;2.22;70.61;100769.13;4975472;28;45393;-77
2022/01/26 00:18:05;;;;;;;;;76.50;57.25;;;;;2.22;70.39;100766.53;4990360;28;45383;-77
2022/01/26 00:20:48;;;;;;;;;77.25;58.25;;;;;2.21;70.48;100764.78;4973712;28;45373;-77
2022/01/26 00:38:49;;;;;;;;;79.25;59.00;;;;;2.04;71.13;100766.16;4974808;28;45423;-77
2022/01/26 00:41:31;;;;;;;;;76.00;56.00;;;;;2.01;70.86;100766.13;4973733;28;45446;-76
2022/01/26 00:43:57;;;;;;;;;73.50;58.00;;;;;1.96;70.87;100768.63;4989549;28;47697;-77
2022/01/26 00:46:23;;;;;;;;;77.75;58.75;;;;;1.93;71.01;100762.47;4974773;28;45592;-77
2022/01/26 00:48:50;;;;;;;;;76.50;58.50;;;;;1.91;71.24;100767.63;4974722;28;45373;-77
2022/01/26 00:51:19;;;;;;;;;78.50;60.50;;;;;1.90;71.60;100762.41;4974909;28;45524;-77
2022/01/26 00:53:47;;;;;;;;;84.25;62.00;;;;;1.87;71.55;100767.53;4989317;28;47081;-77
2022/01/26 00:56:14;;;;;;;;;79.50;61.25;;;;;1.86;71.45;100763.19;4986806;28;45563;-76
2022/01/26 00:58:40;;;;;;;;;78.25;56.75;;;;;1.85;71.31;100762.31;4964733;28;45503;-77
2022/01/26 01:01:05;;;;;;;;;75.50;58.50;;;;;1.84;71.32;100750.19;4990133;28;45526;-77
2022/01/26 01:03:34;;;;;;;;;78.75;61.50;;;;;1.80;71.67;100753.53;4989654;28;48069;-77
2022/01/26 01:08:40;;;;;;;;;78.00;62.50;;;;;1.75;72.05;100753.44;4970010;28;45478;-77
2022/01/26 01:11:08;;;;;;;;;73.50;56.50;;;;;1.73;71.98;100757.72;4992641;28;45605;-76
2022/01/26 01:13:36;;;;;;;;;84.50;63.25;;;;;1.73;72.01;100760.31;4993546;28;46848;-76
2022/01/26 01:16:05;;;;;;;;;81.50;59.25;;;;;1.72;72.18;100755.97;4993753;28;45484;-76
2022/01/26 01:18:50;;;;;;;;;72.00;56.25;;;;;1.74;72.25;100759.47;4978578;28;45419;-76
2022/01/26 01:26:45;;;;;;;;;81.00;60.75;;;;;1.76;72.05;100759.53;4977149;28;45390;-76
2022/01/26 01:29:19;;;;;;;;;75.50;60.25;;;;;1.75;72.13;100758.63;4978471;28;45513;-76
2022/01/26 01:31:55;;;;;;;;;75.25;57.00;;;;;1.75;72.71;100769.03;4978265;28;45666;-76
2022/01/26 01:34:26;;;;;;;;;71.75;56.00;;;;;1.77;72.39;100763.00;4976616;28;45433;-76
2022/01/26 01:36:53;;;;;;;;;83.75;62.50;;;;;1.74;72.38;100767.28;4977977;28;45407;-76
2022/01/26 01:39:20;;;;;;;;;75.75;58.25;;;;;1.74;72.50;100766.41;4967334;28;45368;-76
2022/01/26 01:41:49;;;;;;;;;74.25;58.25;;;;;1.73;72.40;100765.53;4992647;28;45527;-76
2022/01/26 01:44:16;;;;;;;;;72.75;61.00;;;;;1.72;72.52;100773.28;4978226;28;46190;-77
2022/01/26 01:46:42;;;;;;;;;78.75;60.25;;;;;1.70;72.45;100773.25;4977971;28;45313;-76
2022/01/26 01:49:11;;;;;;;;;76.50;60.25;;;;;1.67;72.65;100777.53;4976595;28;45404;-76
2022/01/26 01:51:44;;;;;;;;;78.00;57.50;;;;;1.62;72.68;100772.22;4977991;28;45446;-76
2022/01/26 01:54:14;;;;;;;;;79.25;60.50;;;;;1.61;72.66;100779.97;4993075;28;48197;-76
2022/01/26 01:56:42;;;;;;;;;79.50;63.00;;;;;1.58;73.05;100782.50;4992447;28;45434;-76
2022/01/26 01:59:08;;;;;;;;;76.00;57.75;;;;;1.56;72.82;100785.06;4977247;28;45442;-76
2022/01/26 02:01:33;;;;;;;;;83.50;62.00;;;;;1.54;73.04;100780.66;4971700;28;45419;-76
2022/01/26 02:03:59;;;;;;;;;84.25;59.25;;;;;1.50;73.21;100777.16;4977443;28;46528;-77
2022/01/26 02:06:24;;;;;;;;;78.75;59.25;;;;;1.47;73.09;100777.06;4976453;28;45415;-76
2022/01/26 02:08:50;;;;;;;;;82.50;61.25;;;;;1.42;73.27;100777.81;4993416;28;45378;-76
2022/01/26 02:11:15;;;;;;;;;77.00;58.50;;;;;1.37;73.24;100781.16;4977739;28;45452;-76
2022/01/26 02:21:53;;;;;;;;;67.75;55.50;;;;;1.36;73.75;100786.31;4977933;28;45553;-76
2022/01/26 03:05:01;;;;;;;;;72.25;58.00;;;;;1.03;73.72;100786.38;4964096;28;45238;-76
2022/01/26 03:07:54;;;;;;;;;73.25;57.00;;;;;1.00;74.05;100784.63;4976912;28;45395;-78
2022/01/26 03:13:05;;;;;;;;;76.25;58.25;;;;;0.97;74.14;100787.13;4976944;28;45467;-78
2022/01/26 03:15:37;;;;;;;;;76.00;58.25;;;;;0.96;74.08;100787.97;4977031;28;45327;-78
2022/01/26 03:18:27;;;;;;;;;76.00;56.00;;;;;0.95;74.62;100790.53;4976566;28;45484;-78
2022/01/26 03:20:53;;;;;;;;;71.75;56.75;;;;;0.93;74.82;100782.69;4976677;28;45331;-78
2022/01/26 03:34:12;;;;;;;;;73.75;58.50;;;;;0.84;75.13;100789.38;4976446;28;45411;-78
2022/01/26 03:36:59;;;;;;;;;72.75;58.50;;;;;0.81;75.13;100782.38;4991464;28;45399;-78
2022/01/26 03:39:26;;;;;;;;;77.00;61.00;;;;;0.79;75.15;100789.25;4991833;28;46652;-77
2022/01/26 03:42:15;;;;;;;;;76.75;61.00;;;;;0.79;75.18;100785.78;4991494;28;45359;-77
2022/01/26 03:44:41;;;;;;;;;77.75;61.25;;;;;0.76;75.29;100781.38;4976790;28;45406;-77
2022/01/26 03:47:07;;;;;;;;;66.00;55.75;;;;;0.75;75.54;100781.34;4976253;28;45440;-77
2022/01/26 03:49:34;;;;;;;;;69.50;56.25;;;;;0.73;75.36;100781.28;4976146;28;45516;-77
2022/01/26 03:52:00;;;;;;;;;76.25;59.50;;;;;0.72;75.72;100781.25;4978587;28;45809;-77
2022/01/26 03:54:25;;;;;;;;;76.00;62.25;;;;;0.68;75.71;100773.38;4976589;28;45390;-77
2022/01/26 03:56:51;;;;;;;;;65.75;56.00;;;;;0.68;75.73;100770.78;4976522;28;45312;-77
2022/01/26 03:59:17;;;;;;;;;74.00;58.75;;;;;0.68;75.77;100772.50;4976452;28;46293;-77
2022/01/26 04:01:42;;;;;;;;;69.50;53.75;;;;;0.66;75.86;100777.69;4976323;28;45397;-77
2022/01/26 04:04:08;;;;;;;;;76.00;59.00;;;;;0.67;75.69;100782.00;4976008;28;45521;-77
2022/01/26 04:06:34;;;;;;;;;66.75;51.75;;;;;0.67;76.13;100774.22;4976213;28;45630;-77
2022/01/26 04:09:00;;;;;;;;;70.75;57.75;;;;;0.68;75.83;100772.50;4974947;28;47527;-77
2022/01/26 04:11:38;;;;;;;;;75.75;58.25;;;;;0.68;75.80;100770.78;4976262;28;45361;-77
2022/01/26 04:14:08;;;;;;;;;72.75;56.25;;;;;0.69;75.76;100769.94;4991207;28;45320;-77
2022/01/26 04:16:34;;;;;;;;;75.50;58.25;;;;;0.69;76.04;100769.94;4991058;28;45521;-78
2022/01/26 04:19:00;;;;;;;;;67.00;54.00;;;;;0.69;76.21;100774.25;4975552;28;46159;-77
2022/01/26 04:24:03;;;;;;;;;77.75;59.25;;;;;0.70;76.24;100776.91;4975685;28;45317;-77
2022/01/26 04:26:35;;;;;;;;;71.75;55.00;;;;;0.70;76.20;100770.81;4976155;28;45375;-77
2022/01/26 04:29:07;;;;;;;;;65.25;53.50;;;;;0.69;76.15;100769.94;4975482;28;45941;-77
2022/01/26 04:31:32;;;;;;;;;75.00;58.25;;;;;0.71;75.85;100770.00;4974405;28;45430;-77
2022/01/26 04:33:58;;;;;;;;;67.00;54.50;;;;;0.72;76.15;100773.47;4975256;28;45660;-77
2022/01/26 04:36:30;;;;;;;;;74.50;55.00;;;;;0.73;75.85;100773.50;4974330;28;45428;-77
2022/01/26 04:39:00;;;;;;;;;65.50;55.00;;;;;0.74;76.19;100771.78;4960214;28;46566;-77
2022/01/26 04:41:40;;;;;;;;;69.25;54.75;;;;;0.74;75.87;100767.47;4975473;28;45323;-77
2022/01/26 04:44:20;;;;;;;;;68.00;49.25;;;;;0.74;76.04;100764.88;4975723;28;45465;-77
2022/01/26 04:46:46;;;;;;;;;67.50;54.00;;;;;0.76;75.60;100771.00;4975648;28;45430;-77
2022/01/26 04:49:11;;;;;;;;;66.00;53.50;;;;;0.78;76.04;100766.72;4975173;28;46472;-77
2022/01/26 04:51:37;;;;;;;;;65.25;53.75;;;;;0.79;76.13;100765.88;4975629;28;45442;-77
2022/01/26 04:54:02;;;;;;;;;66.25;51.75;;;;;0.79;75.86;100776.28;4975929;28;45379;-77
2022/01/26 04:56:28;;;;;;;;;68.75;55.00;;;;;0.79;75.77;100767.59;4975705;28;45404;-77
2022/01/26 04:58:53;;;;;;;;;66.00;52.25;;;;;0.79;75.76;100763.28;4975763;28;46551;-78
2022/01/26 05:01:18;;;;;;;;;72.50;56.50;;;;;0.80;76.00;100766.78;4975489;28;45348;-77
2022/01/26 05:03:44;;;;;;;;;75.25;56.00;;;;;0.81;75.75;100772.00;4974117;28;45450;-77
2022/01/26 05:06:09;;;;;;;;;72.00;56.00;;;;;0.81;75.86;100765.94;4975535;28;45307;-78
2022/01/26 05:08:36;;;;;;;;;68.00;52.75;;;;;0.80;75.72;100769.38;4990537;28;47480;-77
2022/01/26 05:11:02;;;;;;;;;69.50;55.75;;;;;0.81;75.83;100764.22;4975158;28;45335;-77
2022/01/26 05:13:28;;;;;;;;;70.75;56.25;;;;;0.79;75.70;100765.88;4987034;28;45602;-77
2022/01/26 05:15:53;;;;;;;;;65.25;53.75;;;;;0.78;75.83;100761.53;4972719;28;45544;-77
2022/01/26 05:18:19;;;;;;;;;66.50;54.75;;;;;0.77;75.86;100758.91;4989874;28;47103;-77
2022/01/26 05:20:44;;;;;;;;;75.00;55.50;;;;;0.77;75.89;100761.50;4975259;28;45521;-77
2022/01/26 05:23:10;;;;;;;;;70.75;52.50;;;;;0.77;76.05;100767.56;4975741;28;45320;-77
2022/01/26 05:25:35;;;;;;;;;67.00;53.00;;;;;0.75;76.26;100761.44;4975013;28;45542;-77
2022/01/26 05:28:01;;;;;;;;;72.50;54.50;;;;;0.74;75.99;100766.59;4975399;28;46147;-77
2022/01/26 05:30:27;;;;;;;;;68.00;54.50;;;;;0.73;76.03;100775.22;4975070;28;45434;-77
2022/01/26 05:32:53;;;;;;;;;72.25;58.75;;;;;0.72;75.91;100766.56;4975024;28;45410;-77
2022/01/26 05:35:18;;;;;;;;;71.00;57.50;;;;;0.69;75.87;100766.47;4974733;28;45438;-77
2022/01/26 05:37:44;;;;;;;;;74.25;58.50;;;;;0.68;76.07;100767.31;4975140;28;45907;-77
2022/01/26 05:40:11;;;;;;;;;77.00;59.00;;;;;0.65;76.11;100768.13;4973526;28;45329;-77
2022/01/26 05:42:37;;;;;;;;;69.75;52.75;;;;;0.65;76.32;100777.63;4989979;28;45325;-77
2022/01/26 05:45:06;;;;;;;;;77.00;59.00;;;;;0.63;76.14;100774.13;4974719;28;45490;-77
2022/01/26 05:47:33;;;;;;;;;75.50;58.50;;;;;0.61;76.05;100771.47;4974521;28;46304;-77
2022/01/26 05:49:59;;;;;;;;;73.75;60.00;;;;;0.59;76.37;100772.28;4986363;28;45395;-77
2022/01/26 05:52:24;;;;;;;;;77.00;56.00;;;;;0.58;76.20;100765.31;4971546;28;45387;-78
2022/01/26 05:54:50;;;;;;;;;81.75;62.00;;;;;0.57;76.12;100761.84;4975907;28;45387;-77
2022/01/26 05:57:15;;;;;;;;;74.75;56.75;;;;;0.57;76.63;100763.56;4977850;28;45365;-78
2022/01/26 05:59:41;;;;;;;;;78.50;59.50;;;;;0.56;76.44;100773.06;4976755;28;45342;-77
2022/01/26 06:02:06;;;;;;;;;76.75;61.75;;;;;0.55;76.49;100765.25;4977940;28;45407;-77
2022/01/26 06:04:32;;;;;;;;;72.50;58.00;;;;;0.54;76.39;100772.16;4989565;28;45709;-77
2022/01/26 06:06:58;;;;;;;;;75.00;58.25;;;;;0.53;76.30;100761.72;4968605;28;46374;-77
2022/01/26 06:09:23;;;;;;;;;75.25;58.75;;;;;0.50;76.63;100764.25;4977239;28;45390;-77
2022/01/26 06:11:49;;;;;;;;;77.25;60.75;;;;;0.47;76.31;100769.38;4977688;28;45399;-77
2022/01/26 06:14:14;;;;;;;;;72.25;55.50;;;;;0.46;76.80;100762.41;4989893;28;45492;-78
2022/01/26 06:16:40;;;;;;;;;77.00;60.25;;;;;0.45;76.90;100758.94;4977121;28;45656;-77
2022/01/26 06:19:05;;;;;;;;;78.25;60.25;;;;;0.45;76.95;100755.47;4976692;28;45427;-77
2022/01/26 06:21:31;;;;;;;;;72.00;57.50;;;;;0.45;76.96;100765.84;4977408;28;45371;-77
2022/01/26 06:23:57;;;;;;;;;72.00;56.75;;;;;0.46;76.94;100768.47;4976026;28;45470;-77
2022/01/26 06:26:22;;;;;;;;;83.25;61.75;;;;;0.45;76.85;100758.94;4977408;28;45439;-77
2022/01/26 06:28:48;;;;;;;;;83.00;61.75;;;;;0.47;77.23;100761.59;4992219;28;45467;-77
2022/01/26 06:31:16;;;;;;;;;79.50;61.75;;;;;0.46;77.08;100759.81;4988616;28;45344;-78
2022/01/26 06:33:43;;;;;;;;;76.75;60.00;;;;;0.46;77.09;100752.91;4986906;28;45534;-78
2022/01/26 06:36:12;;;;;;;;;74.50;58.00;;;;;0.45;76.92;100765.84;4976262;28;45605;-78
2022/01/26 06:38:40;;;;;;;;;81.00;57.25;;;;;0.42;77.40;100765.75;4976107;28;45403;-78
2022/01/26 06:41:06;;;;;;;;;72.75;55.75;;;;;0.41;77.60;100767.47;4990791;28;45439;-78
2022/01/26 06:43:32;;;;;;;;;71.00;56.50;;;;;0.40;77.21;100763.13;4976002;28;45450;-77
2022/01/26 06:46:04;;;;;;;;;69.00;53.75;;;;;0.39;77.30;100773.44;4975693;28;45406;-78
2022/01/26 06:49:00;;;;;;;;;68.75;48.50;;;;;0.38;77.38;100771.69;4973860;28;45648;-77
2022/01/26 06:51:26;;;;;;;;;72.25;54.25;;;;;0.39;77.19;100779.53;4975727;28;45367;-78
2022/01/26 06:53:51;;;;;;;;;67.25;54.00;;;;;0.39;77.35;100782.13;4975394;28;45462;-78
2022/01/26 06:56:17;;;;;;;;;67.00;53.50;;;;;0.39;77.31;100786.41;4976094;28;46009;-78
2022/01/26 06:58:42;;;;;;;;;69.50;52.50;;;;;0.39;77.43;100789.00;4988443;28;45447;-78
2022/01/26 07:01:08;;;;;;;;;71.50;55.00;;;;;0.35;77.10;100791.53;4987619;28;45285;-78
2022/01/26 07:03:33;;;;;;;;;75.00;55.50;;;;;0.34;77.40;100792.34;4975669;28;45482;-78
2022/01/26 07:05:59;;;;;;;;;67.75;53.00;;;;;0.34;77.25;100797.53;4988940;28;47057;-78
2022/01/26 07:08:24;;;;;;;;;71.50;53.75;;;;;0.33;77.46;100798.41;4965986;28;45383;-78
2022/01/26 07:10:51;;;;;;;;;75.75;60.50;;;;;0.31;77.36;100802.66;4976586;28;45344;-79
2022/01/26 07:13:17;;;;;;;;;65.25;47.50;;;;;0.29;77.46;100804.34;4976437;28;45517;-78
2022/01/26 07:21:26;;;;;;;;;63.25;43.75;;;;;0.27;77.82;100818.09;4975928;28;45407;-78
2022/01/26 07:23:56;;;;;;;;;77.25;59.75;;;;;0.27;77.56;100824.16;4975235;28;45514;-78
2022/01/26 07:26:27;;;;;;;;;76.25;60.25;;;;;0.25;77.62;100823.22;4990736;28;47652;-79
2022/01/26 07:28:53;;;;;;;;;78.50;58.50;;;;;0.25;77.56;100823.22;4974545;28;45611;-79
2022/01/26 07:31:18;;;;;;;;;71.25;55.25;;;;;0.26;77.65;100822.41;4990705;28;45399;-79
2022/01/26 07:33:44;;;;;;;;;72.50;52.00;;;;;0.28;77.50;100819.84;4970644;28;45409;-79
2022/01/26 07:36:09;;;;;;;;;78.75;59.50;;;;;0.29;77.69;100817.31;4966966;28;46184;-79
2022/01/26 07:38:35;;;;;;;;;75.50;53.75;;;;;0.32;77.40;100824.31;4990222;28;45518;-77
2022/01/26 07:41:02;;;;;;;;;78.25;60.75;;;;;0.34;77.11;100818.28;4975518;28;45523;-80
2022/01/26 07:43:27;;;;;;;;;74.25;58.50;;;;;0.36;77.10;100818.34;4974803;28;45333;-80
2022/01/26 07:45:53;;;;;;;;;74.00;57.00;;;;;0.37;77.12;100806.25;4975059;28;45535;-80
2022/01/26 07:48:18;;;;;;;;;70.75;55.75;;;;;0.38;77.44;100810.59;4974620;28;45454;-80
2022/01/26 07:50:45;;;;;;;;;78.00;58.00;;;;;0.38;77.41;100805.41;4975220;28;45397;-79
2022/01/26 07:53:15;;;;;;;;;79.75;60.25;;;;;0.40;77.22;100812.41;4989963;28;45516;-79
2022/01/26 07:55:40;;;;;;;;;67.75;53.00;;;;;0.40;77.42;100808.94;4975294;28;46091;-79
2022/01/26 07:58:08;;;;;;;;;76.75;59.00;;;;;0.42;77.03;100817.63;4973478;28;45851;-79
2022/01/26 08:00:34;;;;;;;;;74.25;60.00;;;;;0.44;77.26;100811.66;4975314;28;45414;-79
2022/01/26 08:02:59;;;;;;;;;69.00;56.50;;;;;0.46;77.40;100812.59;4975030;28;45291;-79
2022/01/26 08:05:24;;;;;;;;;77.50;60.75;;;;;0.50;77.21;100818.75;4975117;28;46318;-79
2022/01/26 08:07:50;;;;;;;;;80.00;62.50;;;;;0.51;77.20;100816.16;4975520;28;45391;-79
2022/01/26 08:10:15;;;;;;;;;76.75;61.25;;;;;0.54;77.15;100812.78;4965154;28;45487;-79
2022/01/26 08:12:41;;;;;;;;;76.50;60.75;;;;;0.57;77.11;100815.47;4972074;28;45437;-79
2022/01/26 08:15:09;;;;;;;;;80.50;63.25;;;;;0.60;77.16;100816.44;4975286;28;46270;-79
2022/01/26 08:17:36;;;;;;;;;80.75;60.50;;;;;0.63;76.87;100818.25;4974760;28;45545;-79
2022/01/26 08:20:05;;;;;;;;;83.50;63.00;;;;;0.66;76.99;100820.91;4975346;28;45386;-79
2022/01/26 08:22:31;;;;;;;;;74.25;59.75;;;;;0.72;76.74;100826.25;4987090;28;45662;-79
2022/01/26 08:24:56;;;;;;;;;79.00;62.50;;;;;0.78;76.95;100828.16;4966448;28;45487;-79
2022/01/26 08:27:23;;;;;;;;;82.00;63.25;;;;;0.83;76.68;100829.16;4989752;28;45524;-79
2022/01/26 08:29:52;;;;;;;;;78.75;61.50;;;;;0.88;76.52;100824.94;4987165;28;45470;-79
2022/01/26 08:32:18;;;;;;;;;85.00;64.25;;;;;0.92;76.80;100825.06;4972143;28;45554;-79
2022/01/26 08:34:44;;;;;;;;;82.00;66.00;;;;;1.00;76.37;100830.47;4974396;28;45426;-80
2022/01/26 08:37:09;;;;;;;;;83.25;65.25;;;;;1.05;76.35;100823.66;4974648;28;45375;-78
2022/01/26 08:39:36;;;;;;;;;83.75;63.75;;;;;1.12;76.31;100824.69;4970121;28;45354;-79
2022/01/26 08:42:05;;;;;;;;;86.00;63.00;;;;;1.18;76.43;100828.31;4973175;28;45524;-79
2022/01/26 08:44:31;;;;;;;;;84.25;67.25;;;;;1.25;76.09;100826.75;4974947;28;46673;-80
2022/01/26 08:46:56;;;;;;;;;86.50;64.75;;;;;1.31;75.95;100824.31;4974283;28;45727;-79
2022/01/26 08:49:24;;;;;;;;;83.00;64.00;;;;;1.37;75.86;100827.94;4973597;28;45415;-79
2022/01/26 08:51:51;;;;;;;;;87.50;67.25;;;;;1.44;75.69;100833.28;4974307;28;45306;-79
2022/01/26 08:54:20;;;;;;;;;85.25;64.75;;;;;1.48;75.33;100838.59;4974645;28;45456;-79
2022/01/26 08:56:47;;;;;;;;;70.75;60.00;;;;;1.54;75.10;100841.31;4974165;28;45450;-79
2022/01/26 08:59:13;;;;;;;;;83.25;64.50;;;;;1.60;75.00;100838.00;4974525;28;45504;-80
2022/01/26 09:01:38;;;;;;;;;77.50;60.25;;;;;1.66;74.90;100838.16;4972856;28;45411;-79
2022/01/26 09:04:04;;;;;;;;;84.00;62.75;;;;;1.75;74.98;100846.16;4974498;28;45348;-80
2022/01/26 09:06:32;;;;;;;;;81.50;62.00;;;;;1.82;74.81;100839.38;4974749;28;45296;-80
2022/01/26 09:09:03;;;;;;;;;77.25;59.00;;;;;1.88;74.88;100834.31;4974745;28;45403;-79
2022/01/26 09:11:29;;;;;;;;;75.50;58.00;;;;;1.94;73.97;100831.84;4974650;28;45422;-80
2022/01/26 09:13:57;;;;;;;;;74.75;58.25;;;;;1.98;74.10;100831.06;4974316;28;46071;-80
2022/01/26 09:16:25;;;;;;;;;71.75;55.25;;;;;2.04;73.82;100839.00;4973040;28;45404;-79
2022/01/26 09:18:58;;;;;;;;;77.00;56.50;;;;;2.07;73.69;100828.66;4974179;28;45511;-79
2022/01/26 09:21:24;;;;;;;;;73.50;57.50;;;;;2.12;73.45;100837.44;4989130;28;45357;-79
2022/01/26 09:23:50;;;;;;;;;75.00;56.50;;;;;2.15;73.53;100828.84;4973921;28;45477;-80
2022/01/26 09:26:18;;;;;;;;;73.00;56.25;;;;;2.20;73.38;100827.19;4991498;28;45488;-79
2022/01/26 09:28:43;;;;;;;;;64.25;53.00;;;;;2.24;73.27;100827.28;4977737;28;45491;-79
2022/01/26 09:31:09;;;;;;;;;75.25;54.25;;;;;2.29;73.14;100825.69;4977724;28;45452;-80
2022/01/26 09:33:34;;;;;;;;;73.50;57.75;;;;;2.35;73.24;100823.19;4976809;28;46212;-80
2022/01/26 09:36:00;;;;;;;;;65.75;53.25;;;;;2.40;72.99;100826.75;4977698;28;45354;-80
2022/01/26 09:38:27;;;;;;;;;69.00;53.50;;;;;2.47;72.58;100824.28;4976250;28;45519;-79
2022/01/26 09:40:53;;;;;;;;;68.00;54.25;;;;;2.52;72.59;100820.91;4977252;28;45369;-78
2022/01/26 09:43:18;;;;;;;;;71.00;56.25;;;;;2.59;72.28;100824.53;4976638;28;46574;-79
2022/01/26 09:45:45;;;;;;;;;75.50;58.25;;;;;2.63;72.14;100822.00;4977601;28;45494;-80
2022/01/26 09:48:12;;;;;;;;;70.50;52.25;;;;;2.68;71.79;100824.72;4977267;28;45521;-80
2022/01/26 09:50:42;;;;;;;;;67.75;55.50;;;;;2.71;71.94;100825.63;4991582;28;45481;-79
2022/01/26 09:53:09;;;;;;;;;68.50;57.25;;;;;2.77;72.01;100835.28;4975640;28;47655;-79
2022/01/26 09:55:35;;;;;;;;;72.00;57.50;;;;;2.83;71.62;100838.03;4977168;28;45382;-79
2022/01/26 09:58:02;;;;;;;;;71.25;56.75;;;;;2.88;71.56;100835.47;4992412;28;45449;-79
2022/01/26 10:00:29;;;;;;;;;72.00;54.25;;;;;2.93;71.42;100826.03;4975632;28;45462;-79
2022/01/26 10:02:59;;;;;;;;;69.50;55.00;;;;;2.98;71.28;100827.88;4976645;28;45519;-79
2022/01/26 10:05:25;;;;;;;;;69.50;56.75;;;;;3.03;71.44;100827.94;4975580;28;45507;-79
2022/01/26 10:08:10;;;;;;;;;69.50;54.75;;;;;3.09;70.99;100823.72;4977196;28;45411;-79
2022/01/26 10:18:33;;;;;;;;;61.75;47.75;;;;;3.38;70.74;100810.28;4976544;28;45371;-79
2022/01/26 10:21:01;;;;;;;;;69.50;55.50;;;;;3.42;70.25;100802.53;4976703;28;45414;-79
2022/01/26 10:23:29;;;;;;;;;71.25;57.75;;;;;3.46;70.27;100809.56;4976443;28;45976;-79
2022/01/26 10:26:11;;;;;;;;;70.25;56.00;;;;;3.50;69.94;100795.75;4976165;28;45307;-79
2022/01/26 10:28:44;;;;;;;;;74.50;58.00;;;;;3.59;70.01;100792.38;4991549;28;45393;-78
2022/01/26 10:31:13;;;;;;;;;72.50;56.00;;;;;3.67;69.66;100792.50;4976814;28;45389;-79
2022/01/26 10:33:38;;;;;;;;;70.25;55.00;;;;;3.73;69.73;100798.66;4974454;28;47251;-78
2022/01/26 10:36:04;;;;;;;;;70.25;55.00;;;;;3.78;69.34;100794.41;4975759;28;45427;-79
2022/01/26 10:38:30;;;;;;;;;72.75;56.00;;;;;3.79;69.35;100785.72;4975973;28;45464;-78
2022/01/26 10:40:55;;;;;;;;;71.75;54.00;;;;;3.86;69.22;100784.06;4991349;28;45542;-79
2022/01/26 10:43:20;;;;;;;;;71.00;55.25;;;;;3.94;69.06;100778.94;4976180;28;46388;-79
2022/01/26 10:53:47;;;;;;;;;67.25;54.25;;;;;4.16;68.39;100760.09;4975942;28;46223;-79
2022/01/26 10:56:12;;;;;;;;;69.25;54.25;;;;;4.22;68.11;100760.16;4991014;28;45432;-79
2022/01/26 10:58:39;;;;;;;;;70.50;56.50;;;;;4.27;67.68;100755.88;4975837;28;45347;-79
2022/01/26 11:01:07;;;;;;;;;68.25;55.50;;;;;4.35;67.71;100748.16;4975987;28;45501;-79
2022/01/26 11:03:36;;;;;;;;;75.75;57.50;;;;;4.42;67.21;100749.94;4975349;28;45540;-79
2022/01/26 11:06:05;;;;;;;;;73.50;57.25;;;;;4.48;67.89;100740.47;4975495;28;45430;-80
2022/01/26 11:08:36;;;;;;;;;67.75;53.75;;;;;4.55;67.99;100734.41;4990885;28;45449;-79
2022/01/26 11:11:02;;;;;;;;;68.00;54.25;;;;;4.66;67.83;100729.31;4990429;28;45597;-79
2022/01/26 11:13:30;;;;;;;;;67.25;54.00;;;;;4.81;67.45;100724.22;4974292;28;46301;-80
2022/01/26 11:16:16;;;;;;;;;68.75;54.00;;;;;4.96;66.83;100714.78;4974530;28;45503;-80
2022/01/26 11:18:54;;;;;;;;;78.00;54.75;;;;;5.01;66.33;100708.72;4975707;28;45347;-79
2022/01/26 11:21:33;;;;;;;;;68.75;54.00;;;;;5.07;65.89;100700.91;4990820;28;45416;-80
2022/01/26 11:24:10;;;;;;;;;70.25;53.25;;;;;5.12;65.56;100688.75;4973668;28;47971;-79
2022/01/26 11:26:42;;;;;;;;;57.50;48.25;;;;;5.15;65.09;100694.00;4975720;28;45454;-79
2022/01/26 11:29:35;;;;;;;;;65.00;51.00;;;;;5.22;64.95;100687.94;4975451;28;45326;-79
2022/01/26 11:32:20;;;;;;;;;67.00;51.67;;;;;5.28;64.92;100683.63;4972557;28;45689;-79
2022/01/26 11:34:51;;;;;;;;;62.67;50.67;;;;;5.31;64.26;100670.59;4975376;28;45384;-79
2022/01/26 11:37:25;;;;;;;;;67.67;53.67;;;;;5.35;64.67;100675.84;4974752;28;45427;-79
2022/01/26 11:45:29;;;;;;;;;59.67;48.33;;;;;5.48;63.81;100654.13;4975350;28;45644;-79
2022/01/26 11:48:02;;;;;;;;;60.67;49.00;;;;;5.55;63.93;100645.41;4989823;28;46230;-80
2022/01/26 11:50:30;;;;;;;;;66.33;52.00;;;;;5.62;63.83;100646.31;4974290;28;45400;-80
2022/01/26 11:53:10;;;;;;;;;58.67;47.67;;;;;5.70;63.49;100649.00;4975384;28;45509;-79
2022/01/26 11:55:42;;;;;;;;;62.00;50.33;;;;;5.74;62.67;100646.38;4975176;28;46292;-79
2022/01/26 11:58:18;;;;;;;;;64.00;50.33;;;;;5.79;62.71;100647.28;4990258;28;45480;-79
2022/01/26 12:00:57;;;;;;;;;56.67;47.33;;;;;5.84;62.73;100640.31;4975459;28;45493;-79
2022/01/26 12:03:30;;;;;;;;;75.00;58.50;;;;;5.91;62.57;100643.84;4974797;28;45465;-80
2022/01/26 12:05:57;;;;;;;;;60.00;48.00;;;;;5.94;62.19;100633.38;4974705;28;45417;-79
2022/01/26 12:08:35;;;;;;;;;48.67;39.33;;;;;5.95;61.18;100632.53;4990024;28;45514;-79
2022/01/26 12:11:05;;;;;;;;;55.67;44.00;;;;;5.95;61.04;100630.78;4974934;28;45418;-79
2022/01/26 12:13:32;;;;;;;;;60.33;47.00;;;;;5.98;61.20;100631.66;4973925;28;45449;-80
2022/01/26 12:16:10;;;;;;;;;56.67;45.00;;;;;6.01;60.72;100629.06;4974888;28;45420;-79
2022/01/26 12:19:11;;;;;;;;;51.00;39.67;;;;;6.05;60.12;100623.81;4973381;28;45760;-80
2022/01/26 12:38:17;;;;;;;;;48.67;40.00;;;;;6.39;59.09;100597.66;4974320;28;45441;-78
2022/01/26 12:43:43;;;;;;;;;52.67;44.33;;;;;6.49;58.36;100600.31;4974606;28;45469;-79
2022/01/26 12:46:13;;;;;;;;;57.67;42.33;;;;;6.53;58.70;100598.56;4972898;28;45847;-78
2022/01/26 12:48:42;;;;;;;;;20.00;16.00;;;;;6.58;58.45;100594.19;4974077;28;46514;-78
2022/01/26 12:51:09;;;;;;;;;54.00;42.33;;;;;6.63;58.00;100585.47;4973903;28;45415;-79
2022/01/26 12:53:36;;;;;;;;;43.33;37.00;;;;;6.68;58.23;100577.59;4974329;28;45443;-78
2022/01/26 12:56:04;;;;;;;;;50.00;41.00;;;;;6.74;57.96;100574.06;4989823;28;45458;-80
2022/01/26 12:58:32;;;;;;;;;55.00;43.33;;;;;6.81;57.59;100574.09;4974180;28;46801;-80
2022/01/26 13:01:17;;;;;;;;;54.33;41.67;;;;;6.87;57.26;100568.81;4973611;28;45513;-79
2022/01/26 13:03:43;;;;;;;;;55.67;44.33;;;;;6.91;57.30;100557.44;4974254;28;45498;-80
2022/01/26 13:06:12;;;;;;;;;51.33;40.33;;;;;6.96;57.09;100555.69;4974528;28;45440;-78
2022/01/26 13:08:53;;;;;;;;;42.33;34.33;;;;;7.03;56.84;100550.44;4972763;28;47268;-80
2022/01/26 13:11:33;;;;;;;;;54.67;41.00;;;;;7.06;56.68;100546.03;4974313;28;45479;-78
2022/01/26 13:14:21;;;;;;;;;51.33;41.67;;;;;7.10;56.69;100544.28;4974521;28;45362;-80
2022/01/26 13:19:52;;;;;;;;;53.33;42.67;;;;;7.18;56.25;100530.28;4974083;28;46048;-78
2022/01/26 13:23:19;;;;;;;;;58.00;45.00;;;;;7.23;56.09;100522.38;4973789;28;45485;-80
2022/01/26 13:31:45;;;;;;;;;44.33;37.33;;;;;7.37;55.90;100530.22;4963405;28;45423;-79
2022/01/26 13:34:46;;;;;;;;;50.67;40.00;;;;;7.42;56.88;100528.41;4974000;28;46125;-79
2022/01/26 13:37:36;;;;;;;;;37.00;32.33;;;;;7.47;55.71;100513.53;4988744;28;45446;-79
2022/01/26 13:53:02;;;;;;;;;36.00;32.00;;;;;7.70;54.92;100499.41;4974015;28;46329;-78
2022/01/26 14:00:37;;;;;;;;;19.67;16.67;;;;;7.84;54.86;100506.31;4973323;28;45329;-79
2022/01/26 14:03:06;;;;;;;;;39.50;33.50;;;;;7.87;54.33;100486.19;4973413;28;45459;-79
2022/01/26 14:05:32;;;;;;;;;45.33;37.33;;;;;7.91;53.92;100487.88;4974317;28;45396;-80
2022/01/26 14:07:57;;;;;;;;;42.67;36.33;;;;;7.96;54.19;100485.22;4972234;28;45442;-79
2022/01/26 14:10:23;;;;;;;;;45.67;37.33;;;;;7.98;54.13;100483.47;4973655;28;45339;-79
2022/01/26 14:12:50;;;;;;;;;42.33;37.00;;;;;8.04;53.72;100484.25;4991221;28;48054;-80